Terminal Aerodrome Forecast
Issued by NWS

Home | Current Version | Previous Version | Graphics & Text | Print | Product List | Glossary On
Versions: 1 2 3 4 5 6 7 8 9 10 11 12 13 14 15 16 17 18 19 20 21
000
FTUS43 KMPX 280520
TAFAXN
TAF
KAXN 280520Z 2806/2906 16008KT P6SM SCT030 BKN150
     FM281000 14004KT 5SM BR SCT009 OVC020
     FM281500 13008KT P6SM BKN025
     FM282000 15007KT P6SM SCT030 BKN100
     FM290000 15004KT P6SM BKN250=

USA.gov is the U.S. government's official web portal to all federal, state and local government web resources and services.